Time,TemperatureF,DewpointF,PressureIn,WindDirection,WindDirectionDegrees,WindSpeedMPH,WindSpeedGustMPH,Humidity,HourlyPrecipIn,Conditions,Clouds,dailyrainin,SoftwareType,DateUTC
2013-08-13 00:08:00,49.9,41.0,29.99,ENE,64,0.0,0.0,72,0.00,,,0.00,weatherlink.com 1.10,2013-08-13 06:08:00,
2013-08-13 00:23:00,49.3,41.0,29.99,ENE,64,0.0,0.0,74,0.00,,,0.00,weatherlink.com 1.10,2013-08-13 06:23:00,
2013-08-13 00:38:00,49.8,41.0,29.98,ENE,64,0.0,0.0,73,0.00,,,0.00,weatherlink.com 1.10,2013-08-13 06:38:00,
2013-08-13 00:53:00,48.6,41.0,29.98,ENE,64,0.0,0.0,74,0.00,,,0.00,weatherlink.com 1.10,2013-08-13 06:53:00,
2013-08-13 01:08:00,48.0,40.0,29.98,ENE,65,0.0,0.0,75,0.00,,,0.00,weatherlink.com 1.10,2013-08-13 07:08:00,
2013-08-13 01:23:00,47.9,40.0,29.98,ENE,68,0.0,0.0,74,0.00,,,0.00,weatherlink.com 1.10,2013-08-13 07:23:00,
2013-08-13 01:38:00,48.6,41.0,29.97,ENE,68,0.0,0.0,75,0.00,,,0.00,weatherlink.com 1.10,2013-08-13 07:38:00,
2013-08-13 01:53:00,47.6,39.0,29.97,ENE,73,0.0,0.0,73,0.00,,,0.00,weatherlink.com 1.10,2013-08-13 07:53:00,
2013-08-13 02:08:00,46.3,39.0,29.98,ENE,73,0.0,0.0,75,0.00,,,0.00,weatherlink.com 1.10,2013-08-13 08:08:00,
2013-08-13 02:23:00,46.1,40.0,29.98,ENE,74,0.0,0.0,78,0.00,,,0.00,weatherlink.com 1.10,2013-08-13 08:23:00,
2013-08-13 02:38:00,47.6,40.0,29.99,ENE,73,0.0,0.0,76,0.00,,,0.00,weatherlink.com 1.10,2013-08-13 08:38:00,
2013-08-13 02:53:00,48.6,41.0,29.99,ENE,73,0.0,0.0,74,0.00,,,0.00,weatherlink.com 1.10,2013-08-13 08:53:00,
2013-08-13 03:08:00,48.4,40.0,29.99,ENE,73,0.0,0.0,74,0.00,,,0.00,weatherlink.com 1.10,2013-08-13 09:08:00,
2013-08-13 03:23:00,48.5,41.0,29.99,ENE,73,0.0,0.0,74,0.00,,,0.00,weatherlink.com 1.10,2013-08-13 09:23:00,
2013-08-13 03:38:00,48.5,41.0,29.99,ENE,73,0.0,0.0,74,0.00,,,0.00,weatherlink.com 1.10,2013-08-13 09:38:00,
2013-08-13 03:53:00,48.0,40.0,29.99,ENE,73,0.0,0.0,73,0.00,,,0.00,weatherlink.com 1.10,2013-08-13 09:53:00,
2013-08-13 04:08:00,46.7,39.0,29.99,ENE,73,0.0,0.0,75,0.00,,,0.00,weatherlink.com 1.10,2013-08-13 10:08:00,
2013-08-13 04:23:00,45.8,40.0,29.99,ENE,73,0.0,0.0,79,0.00,,,0.00,weatherlink.com 1.10,2013-08-13 10:23:00,
2013-08-13 04:38:00,44.6,39.0,29.99,ENE,72,0.0,0.0,80,0.00,,,0.00,weatherlink.com 1.10,2013-08-13 10:38:00,
2013-08-13 04:53:00,44.0,39.0,29.99,ENE,70,0.0,0.0,82,0.00,,,0.00,weatherlink.com 1.10,2013-08-13 10:53:00,
2013-08-13 05:08:00,43.9,39.0,29.99,ENE,70,0.0,0.0,82,0.00,,,0.00,weatherlink.com 1.10,2013-08-13 11:08:00,
2013-08-13 05:23:00,43.9,39.0,29.99,ENE,68,0.0,0.0,82,0.00,,,0.00,weatherlink.com 1.10,2013-08-13 11:23:00,
2013-08-13 05:38:00,43.9,39.0,30.00,ENE,68,0.0,0.0,82,0.00,,,0.00,weatherlink.com 1.10,2013-08-13 11:38:00,
2013-08-13 05:53:00,44.0,39.0,30.00,ENE,68,0.0,0.0,82,0.00,,,0.00,weatherlink.com 1.10,2013-08-13 11:53:00,
2013-08-13 06:09:00,43.7,38.0,30.00,ENE,68,0.0,0.0,81,0.00,,,0.00,weatherlink.com 1.10,2013-08-13 12:09:00,
2013-08-13 06:23:00,43.1,38.0,30.00,ENE,68,0.0,0.0,81,0.00,,,0.00,weatherlink.com 1.10,2013-08-13 12:23:00,
2013-08-13 06:38:00,42.6,38.0,30.01,ENE,68,0.0,0.0,84,0.00,,,0.00,weatherlink.com 1.10,2013-08-13 12:38:00,
2013-08-13 06:53:00,43.5,39.0,30.02,ENE,68,0.0,0.0,83,0.00,,,0.00,weatherlink.com 1.10,2013-08-13 12:53:00,
2013-08-13 07:08:00,46.1,40.0,30.02,ENE,68,0.0,0.0,79,0.00,,,0.00,weatherlink.com 1.10,2013-08-13 13:08:00,
2013-08-13 07:23:00,49.1,42.0,30.02,ENE,68,0.0,0.0,75,0.00,,,0.00,weatherlink.com 1.10,2013-08-13 13:23:00,
2013-08-13 07:38:00,51.8,42.0,30.02,ENE,68,0.0,0.0,70,0.00,,,0.00,weatherlink.com 1.10,2013-08-13 13:38:00,
2013-08-13 07:53:00,52.8,42.0,30.02,ENE,68,0.0,0.0,66,0.00,,,0.00,weatherlink.com 1.10,2013-08-13 13:53:00,
2013-08-13 08:08:00,51.1,42.0,30.02,ENE,68,0.0,0.0,70,0.00,,,0.00,weatherlink.com 1.10,2013-08-13 14:08:00,
2013-08-13 08:23:00,51.4,42.0,30.03,ENE,68,0.0,0.0,70,0.00,,,0.00,weatherlink.com 1.10,2013-08-13 14:23:00,
2013-08-13 08:39:00,52.5,42.0,30.03,ENE,68,0.0,0.0,68,0.00,,,0.00,weatherlink.com 1.10,2013-08-13 14:39:00,
2013-08-13 08:54:00,54.2,43.0,30.03,ENE,68,0.0,0.0,67,0.00,,,0.00,weatherlink.com 1.10,2013-08-13 14:54:00,
2013-08-13 09:09:00,55.9,43.0,30.03,East,94,1.0,4.0,62,0.00,,,0.00,weatherlink.com 1.10,2013-08-13 15:09:00,
2013-08-13 09:24:00,56.7,43.0,30.03,ESE,115,0.0,4.0,60,0.00,,,0.00,weatherlink.com 1.10,2013-08-13 15:24:00,
2013-08-13 09:39:00,57.7,43.0,30.03,SW,224,0.0,6.0,59,0.00,,,0.00,weatherlink.com 1.10,2013-08-13 15:39:00,
2013-08-13 09:54:00,59.9,45.0,30.03,SW,232,0.0,6.0,58,0.00,,,0.00,weatherlink.com 1.10,2013-08-13 15:54:00,
2013-08-13 10:09:00,61.3,44.0,30.02,SW,235,0.0,5.0,53,0.00,,,0.00,weatherlink.com 1.10,2013-08-13 16:09:00,
2013-08-13 10:24:00,63.2,45.0,30.02,SW,223,0.0,4.0,51,0.00,,,0.00,weatherlink.com 1.10,2013-08-13 16:24:00,
2013-08-13 10:39:00,64.8,46.0,30.01,SW,233,0.0,5.0,51,0.00,,,0.00,weatherlink.com 1.10,2013-08-13 16:39:00,
2013-08-13 10:54:00,66.7,46.0,30.01,SW,219,3.0,7.0,47,0.00,,,0.00,weatherlink.com 1.10,2013-08-13 16:54:00,
2013-08-13 11:24:00,68.5,44.0,30.00,WNW,294,4.0,8.0,42,0.00,,,0.00,weatherlink.com 1.10,2013-08-13 17:24:00,
2013-08-13 11:39:00,69.5,45.0,30.00,SSW,202,0.0,10.0,41,0.00,,,0.00,weatherlink.com 1.10,2013-08-13 17:39:00,
2013-08-13 11:54:00,70.2,43.0,29.99,West,262,4.0,10.0,38,0.00,,,0.00,weatherlink.com 1.10,2013-08-13 17:54:00,
2013-08-13 12:09:00,71.3,44.0,29.98,West,265,3.0,14.0,37,0.00,,,0.00,weatherlink.com 1.10,2013-08-13 18:09:00,
2013-08-13 12:24:00,72.1,44.0,29.97,NW,309,0.0,11.0,36,0.00,,,0.00,weatherlink.com 1.10,2013-08-13 18:24:00,
2013-08-13 12:39:00,72.8,45.0,29.97,WNW,298,6.0,15.0,37,0.00,,,0.00,weatherlink.com 1.10,2013-08-13 18:39:00,
2013-08-13 12:54:00,73.6,43.0,29.97,West,266,10.0,15.0,34,0.00,,,0.00,weatherlink.com 1.10,2013-08-13 18:54:00,
2013-08-13 13:09:00,74.3,43.0,29.96,SW,232,2.0,13.0,32,0.00,,,0.00,weatherlink.com 1.10,2013-08-13 19:09:00,
2013-08-13 13:25:00,74.8,42.0,29.95,WNW,291,6.0,12.0,31,0.00,,,0.00,weatherlink.com 1.10,2013-08-13 19:25:00,
2013-08-13 13:40:00,72.2,41.0,29.96,SW,235,7.0,12.0,33,0.00,,,0.00,weatherlink.com 1.10,2013-08-13 19:40:00,
2013-08-13 13:55:00,73.3,44.0,29.95,NE,52,2.0,9.0,35,0.00,,,0.00,weatherlink.com 1.10,2013-08-13 19:55:00,
2013-08-13 14:10:00,70.8,42.0,29.96,WSW,258,6.0,9.0,35,0.00,,,0.00,weatherlink.com 1.10,2013-08-13 20:10:00,
2013-08-13 14:25:00,63.4,51.0,29.96,SW,232,0.0,21.0,64,0.01,,,0.01,weatherlink.com 1.10,2013-08-13 20:25:00,
2013-08-13 14:40:00,62.8,48.0,29.97,WSW,243,7.0,12.0,59,0.03,,,0.03,weatherlink.com 1.10,2013-08-13 20:40:00,
2013-08-13 14:55:00,62.1,50.0,29.96,SSW,208,0.0,5.0,64,0.03,,,0.03,weatherlink.com 1.10,2013-08-13 20:55:00,
2013-08-13 15:10:00,67.2,47.0,29.95,SW,230,9.0,15.0,48,0.03,,,0.03,weatherlink.com 1.10,2013-08-13 21:10:00,
2013-08-13 15:25:00,68.1,43.0,29.95,SW,229,1.0,8.0,41,0.02,,,0.03,weatherlink.com 1.10,2013-08-13 21:25:00,
2013-08-13 15:40:00,70.4,47.0,29.95,South,176,5.0,13.0,43,0.00,,,0.03,weatherlink.com 1.10,2013-08-13 21:40:00,
2013-08-13 15:55:00,70.2,45.0,29.95,South,186,6.0,11.0,41,0.00,,,0.03,weatherlink.com 1.10,2013-08-13 21:55:00,
2013-08-13 16:10:00,71.8,43.0,29.94,SSW,196,7.0,10.0,36,0.00,,,0.03,weatherlink.com 1.10,2013-08-13 22:10:00,
2013-08-13 16:25:00,72.9,45.0,29.94,SW,236,4.0,12.0,37,0.00,,,0.03,weatherlink.com 1.10,2013-08-13 22:25:00,
2013-08-13 16:40:00,73.1,44.0,29.94,SSW,213,7.0,17.0,35,0.00,,,0.03,weatherlink.com 1.10,2013-08-13 22:40:00,
2013-08-13 17:15:00,73.8,40.0,29.93,SSW,203,4.0,12.0,29,0.00,,,0.03,weatherlink.com 1.10,2013-08-13 23:15:00,
2013-08-13 17:26:00,72.7,43.0,29.93,South,179,1.0,10.0,35,0.00,,,0.03,weatherlink.com 1.10,2013-08-13 23:26:00,